Time;durP1;ratioP1;P1;durP2;ratioP2;P2;SDS_P1;SDS_P2;PMS_P1;PMS_P2;Temp;Humidity;BMP_temperature;BMP_pressure;BME280_temperature;BME280_humidity;BME280_pressure;Samples;Min_cycle;Max_cycle;Signal;HPM_P1;HPM_P2
2021/12/10 00:01:25;;;;;;;21.88;12.88;;;;;;;4.03;78.25;99600.47;3577203;40;20379;-66
2021/12/10 00:03:57;;;;;;;21.50;13.00;;;;;;;4.05;77.88;99588.81;3576394;40;20065;-67
2021/12/10 00:06:36;;;;;;;22.70;12.57;;;;;;;4.11;78.29;99587.63;3577448;40;20130;-68
2021/12/10 00:09:15;;;;;;;24.20;12.45;;;;;;;4.15;77.86;99578.53;3581139;40;20053;-67
2021/12/10 00:11:51;;;;;;;20.48;11.88;;;;;;;4.24;77.30;99578.00;3579087;40;20107;-67
2021/12/10 00:14:25;;;;;;;19.67;11.85;;;;;;;4.26;76.90;99562.84;3577093;40;20057;-67
2021/12/10 00:16:52;;;;;;;18.48;11.02;;;;;;;4.07;77.11;99519.59;3576340;40;20387;-68
2021/12/10 00:19:54;;;;;;;22.52;10.75;;;;;;;4.31;76.87;99555.44;3575795;40;20048;-68
2021/12/10 00:22:19;;;;;;;18.23;10.20;;;;;;;4.34;76.68;99552.59;3575959;40;20106;-67
2021/12/10 00:24:49;;;;;;;17.67;10.15;;;;;;;4.35;76.06;99546.34;3577039;40;20101;-67
2021/12/10 00:27:26;;;;;;;17.17;10.13;;;;;;;4.39;75.93;99542.56;3576495;40;20106;-66
2021/12/10 00:29:52;;;;;;;16.55;9.70;;;;;;;4.39;75.90;99529.25;3576500;40;20124;-67
2021/12/10 00:32:30;;;;;;;19.33;9.65;;;;;;;4.22;75.73;99478.84;3578514;40;20123;-68
2021/12/10 00:35:05;;;;;;;16.58;8.88;;;;;;;4.44;75.45;99515.72;3577415;40;20061;-67
2021/12/10 00:37:32;;;;;;;16.75;8.70;;;;;;;4.43;75.52;99509.50;3578304;40;20044;-68
2021/12/10 00:40:03;;;;;;;17.60;8.60;;;;;;;4.37;75.12;99483.25;3581031;40;20366;-66
2021/12/10 00:42:33;;;;;;;15.25;8.07;;;;;;;4.43;74.60;99485.56;3576767;40;20096;-67
2021/12/10 00:45:05;;;;;;;13.25;7.97;;;;;;;4.43;74.98;99477.59;3576599;40;20069;-68
2021/12/10 00:47:31;;;;;;;13.98;7.28;;;;;;;4.38;74.85;99476.16;3576121;40;20126;-68
2021/12/10 00:49:58;;;;;;;11.95;6.88;;;;;;;4.32;74.65;99457.91;3569972;40;20128;-67
2021/12/10 00:52:24;;;;;;;14.13;7.18;;;;;;;4.36;74.92;99470.91;3580547;40;20125;-67
2021/12/10 00:54:50;;;;;;;13.95;6.82;;;;;;;4.09;74.69;99414.88;3577991;40;20053;-67
2021/12/10 00:57:17;;;;;;;13.35;6.78;;;;;;;4.30;74.53;99451.78;3579127;40;20052;-68
2021/12/10 00:59:48;;;;;;;10.50;6.60;;;;;;;4.32;74.62;99448.09;3578118;40;20056;-66
2021/12/10 01:02:21;;;;;;;17.60;6.78;;;;;;;4.31;74.55;99451.69;3580245;40;20052;-67
2021/12/10 01:04:54;;;;;;;10.43;5.90;;;;;;;4.29;74.76;99437.66;3580125;40;20111;-67
2021/12/10 01:07:30;;;;;;;15.13;6.57;;;;;;;4.27;75.02;99425.38;3579684;40;20057;-68
2021/12/10 01:10:00;;;;;;;14.25;6.32;;;;;;;4.08;73.97;99396.34;3576353;40;20096;-67
2021/12/10 01:12:40;;;;;;;14.45;6.45;;;;;;;4.21;74.42;99415.09;3577917;40;20044;-68
2021/12/10 01:28:56;;;;;;;13.73;6.10;;;;;;;4.22;74.46;99366.25;3574420;40;20403;-66
2021/12/10 01:31:22;;;;;;;13.30;5.70;;;;;;;4.22;74.45;99356.50;3577655;40;20436;-67
2021/12/10 01:33:50;;;;;;;13.38;6.15;;;;;;;4.19;74.53;99352.22;3575287;40;20056;-67
2021/12/10 01:36:16;;;;;;;12.52;6.00;;;;;;;3.98;74.80;99315.41;3575746;40;20051;-66
2021/12/10 01:38:48;;;;;;;8.73;5.55;;;;;;;4.19;74.36;99338.06;3574587;40;20056;-66
2021/12/10 01:41:17;;;;;;;12.98;5.30;;;;;;;4.07;74.24;99321.03;3579154;40;20056;-66
2021/12/10 01:43:47;;;;;;;13.13;5.63;;;;;;;4.18;74.33;99329.22;3575745;40;20048;-68
2021/12/10 01:46:25;;;;;;;9.23;4.80;;;;;;;4.17;74.25;99327.50;3578998;40;20052;-67
2021/12/10 01:48:57;;;;;;;11.23;5.18;;;;;;;4.18;74.24;99328.34;3576710;40;20117;-65
2021/12/10 01:51:29;;;;;;;9.07;4.95;;;;;;;4.16;74.39;99323.16;3581469;40;20049;-67
2021/12/10 01:54:02;;;;;;;13.35;5.30;;;;;;;4.17;74.25;99321.34;3576007;40;20056;-68
2021/12/10 01:56:34;;;;;;;11.93;5.25;;;;;;;4.10;74.58;99298.72;3576854;40;20043;-67
2021/12/10 01:59:03;;;;;;;10.77;5.28;;;;;;;4.14;74.16;99309.06;3571166;40;20100;-67
2021/12/10 02:01:38;;;;;;;13.27;5.13;;;;;;;4.14;74.10;99306.41;3578409;40;20049;-65
2021/12/10 02:04:07;;;;;;;9.55;4.45;;;;;;;4.16;74.10;99311.66;3578256;40;20048;-67
2021/12/10 02:06:34;;;;;;;8.65;5.00;;;;;;;3.94;73.83;99273.06;3577656;40;20130;-67
2021/12/10 02:09:00;;;;;;;10.10;4.85;;;;;;;3.85;74.20;99252.31;3584556;40;20052;-67
2021/12/10 02:11:26;;;;;;;11.27;5.47;;;;;;;4.18;74.27;99296.44;3581324;40;20048;-66
2021/12/10 02:13:52;;;;;;;12.30;4.90;;;;;;;4.17;74.32;99289.44;3577965;40;20062;-67
2021/12/10 02:16:18;;;;;;;9.48;4.63;;;;;;;4.11;73.93;99284.47;3578289;40;20049;-67
2021/12/10 02:18:44;;;;;;;12.52;5.20;;;;;;;4.17;74.24;99284.09;3577299;40;20096;-67
2021/12/10 02:21:09;;;;;;;8.77;4.43;;;;;;;4.16;73.69;99280.59;3577944;40;20370;-67
2021/12/10 02:23:41;;;;;;;13.98;4.57;;;;;;;4.18;73.89;99275.16;3577474;40;20052;-66
2021/12/10 02:26:12;;;;;;;7.15;4.20;;;;;;;4.20;73.47;99265.31;3581315;40;20053;-67
2021/12/10 02:28:39;;;;;;;9.50;4.07;;;;;;;4.20;73.90;99257.31;3571792;40;20054;-66
2021/12/10 02:31:08;;;;;;;9.43;3.92;;;;;;;4.14;73.40;99239.94;3577918;40;20057;-67
2021/12/10 02:33:34;;;;;;;6.85;4.10;;;;;;;4.20;73.60;99236.06;3566664;40;20075;-68
2021/12/10 02:36:01;;;;;;;8.90;4.07;;;;;;;4.22;73.05;99239.47;3577699;40;20084;-67
2021/12/10 02:38:27;;;;;;;8.52;4.18;;;;;;;4.25;73.08;99233.97;3579341;40;20060;-67
2021/12/10 02:40:55;;;;;;;9.60;3.53;;;;;;;4.27;72.75;99221.41;3577656;40;20070;-67
2021/12/10 02:43:23;;;;;;;8.65;3.80;;;;;;;4.26;72.94;99213.56;3578554;40;20100;-67
2021/12/10 02:45:56;;;;;;;8.20;3.45;;;;;;;4.30;72.92;99209.75;3577283;40;20060;-66
2021/12/10 02:48:24;;;;;;;10.90;3.58;;;;;;;4.29;72.80;99208.03;3578439;40;20292;-67
2021/12/10 02:50:52;;;;;;;8.23;3.38;;;;;;;4.29;72.31;99208.91;3579362;40;20057;-66
2021/12/10 02:53:23;;;;;;;7.63;3.40;;;;;;;4.32;72.30;99200.72;3578162;40;20049;-67
2021/12/10 02:55:50;;;;;;;11.13;3.40;;;;;;;4.32;72.40;99202.53;3577391;40;20524;-66
2021/12/10 02:58:16;;;;;;;8.60;3.10;;;;;;;4.36;72.43;99204.03;3577575;40;20051;-67
2021/12/10 03:00:53;;;;;;;4.60;2.88;;;;;;;4.34;72.09;99196.16;3577918;40;20049;-67
2021/12/10 03:03:18;;;;;;;7.85;3.45;;;;;;;4.40;72.07;99194.91;3579026;40;20057;-67
2021/12/10 03:05:45;;;;;;;8.75;2.83;;;;;;;4.40;71.77;99187.78;3581009;40;20572;-67
2021/12/10 03:08:12;;;;;;;12.57;3.25;;;;;;;4.12;71.76;99132.84;3579432;40;20044;-67
2021/12/10 03:10:38;;;;;;;7.85;2.97;;;;;;;4.39;71.89;99169.28;3577900;40;20106;-67
2021/12/10 03:13:07;;;;;;;9.18;3.25;;;;;;;4.37;71.76;99163.19;3579128;40;20048;-67
2021/12/10 03:15:34;;;;;;;10.38;3.10;;;;;;;4.35;71.73;99152.66;3580919;40;20060;-66
2021/12/10 03:18:05;;;;;;;6.82;3.15;;;;;;;4.29;71.75;99139.75;3636043;22;20064;-62
2021/12/10 03:20:32;;;;;;;5.00;2.60;;;;;;;4.32;71.73;99134.22;3580044;40;20049;-62
2021/12/10 03:23:02;;;;;;;5.90;2.58;;;;;;;4.35;71.29;99128.72;3580010;40;20064;-62
2021/12/10 03:25:28;;;;;;;8.25;2.78;;;;;;;4.44;71.40;99137.94;3581938;40;20051;-62
2021/12/10 03:27:54;;;;;;;5.82;2.58;;;;;;;4.36;71.12;99135.72;3577837;40;20045;-63
2021/12/10 03:30:39;;;;;;;9.38;2.50;;;;;;;4.49;71.29;99134.94;3584261;40;20036;-62
2021/12/10 03:33:05;;;;;;;5.75;2.67;;;;;;;4.33;71.18;99109.31;3571899;40;20302;-62
2021/12/10 03:35:41;;;;;;;7.40;2.40;;;;;;;4.51;70.84;99139.22;3579579;40;20052;-62
2021/12/10 03:38:11;;;;;;;9.38;2.80;;;;;;;4.50;71.35;99131.34;3578863;40;20130;-62
2021/12/10 03:40:38;;;;;;;11.00;2.88;;;;;;;4.53;70.67;99126.66;3580675;40;20076;-62
2021/12/10 03:43:06;;;;;;;9.38;2.70;;;;;;;4.47;70.89;99100.44;3582948;40;20075;-62
2021/12/10 03:45:38;;;;;;;11.95;2.92;;;;;;;4.53;71.06;99109.84;3582038;40;20396;-63
2021/12/10 03:48:16;;;;;;;7.93;3.03;;;;;;;4.61;71.12;99118.19;3580123;40;20064;-62
2021/12/10 03:50:46;;;;;;;6.85;2.70;;;;;;;4.60;71.12;99105.88;3582089;40;20077;-62
2021/12/10 03:53:15;;;;;;;7.97;2.63;;;;;;;4.63;70.98;99105.63;3579974;40;20044;-62
2021/12/10 03:55:42;;;;;;;8.55;2.75;;;;;;;4.67;71.35;99101.84;3581428;40;20044;-63
2021/12/10 03:58:09;;;;;;;5.03;2.50;;;;;;;4.66;71.00;99100.09;3580444;40;20064;-62
2021/12/10 04:00:42;;;;;;;7.40;2.88;;;;;;;4.65;70.31;99093.09;3578477;40;20569;-62
2021/12/10 04:03:09;;;;;;;6.82;2.60;;;;;;;4.68;70.94;99092.03;3578852;40;20054;-62
2021/12/10 04:05:34;;;;;;;8.13;2.50;;;;;;;4.69;70.78;99089.25;3579800;40;20383;-63
2021/12/10 04:08:00;;;;;;;9.40;3.17;;;;;;;4.71;71.24;99076.72;3578832;40;20067;-62
2021/12/10 04:10:27;;;;;;;7.15;2.70;;;;;;;4.45;71.07;99029.69;3579795;40;20050;-62
2021/12/10 04:12:55;;;;;;;7.93;2.53;;;;;;;4.61;71.32;99057.00;3573879;40;20044;-62
2021/12/10 04:15:23;;;;;;;8.35;2.90;;;;;;;4.71;71.28;99058.09;3580041;40;20048;-62
2021/12/10 04:17:54;;;;;;;8.65;2.97;;;;;;;4.71;71.66;99055.44;3577236;40;20161;-62
2021/12/10 04:20:26;;;;;;;5.20;2.65;;;;;;;4.67;71.66;99053.94;3579023;40;20044;-63
2021/12/10 04:22:52;;;;;;;12.90;3.45;;;;;;;4.65;71.81;99035.41;3579498;40;20062;-64
2021/12/10 04:25:24;;;;;;;9.48;2.92;;;;;;;4.62;71.90;99037.41;3580135;40;20048;-62
2021/12/10 04:27:58;;;;;;;11.52;2.88;;;;;;;4.61;71.79;99031.25;3577978;40;20053;-63
2021/12/10 04:30:26;;;;;;;;;;;;;;;4.61;71.86;99028.56;3576822;40;20041;-63
2021/12/10 04:32:52;;;;;;;15.68;7.40;;;;;;;4.58;71.92;99022.59;3574913;40;20263;-63
2021/12/10 04:35:19;;;;;;;9.35;3.05;;;;;;;4.54;72.40;99007.81;3577513;40;20143;-62
2021/12/10 04:37:51;;;;;;;9.32;3.53;;;;;;;4.54;72.75;99008.66;3581702;40;20076;-63
2021/12/10 04:40:21;;;;;;;9.85;3.22;;;;;;;4.56;73.08;99003.22;3578424;40;20048;-63
2021/12/10 04:42:48;;;;;;;8.98;2.75;;;;;;;4.51;72.71;99003.53;3576155;40;20123;-63
2021/12/10 04:45:16;;;;;;;8.95;3.22;;;;;;;4.54;72.87;98990.03;3577042;40;20059;-62
2021/12/10 04:47:43;;;;;;;10.88;2.97;;;;;;;4.36;72.56;98964.66;3578088;40;20084;-63
2021/12/10 04:50:11;;;;;;;5.90;2.90;;;;;;;4.47;72.77;98982.53;3579201;40;20092;-63
2021/12/10 04:52:37;;;;;;;10.20;2.88;;;;;;;4.42;72.25;98978.38;3578077;40;20049;-62
2021/12/10 04:55:09;;;;;;;9.18;2.85;;;;;;;4.38;72.21;98960.94;3578036;40;20056;-62
2021/12/10 04:57:35;;;;;;;8.85;2.83;;;;;;;4.48;71.72;98968.31;3575524;40;20056;-63
2021/12/10 05:00:08;;;;;;;9.95;2.70;;;;;;;4.51;71.46;98953.00;3578482;40;20103;-62
2021/12/10 05:02:36;;;;;;;7.65;3.15;;;;;;;4.50;71.39;98951.25;3575582;40;20145;-62
2021/12/10 05:05:04;;;;;;;10.10;3.22;;;;;;;4.49;71.50;98936.25;3577518;40;20299;-63
2021/12/10 05:07:33;;;;;;;7.10;2.42;;;;;;;4.57;71.21;98943.75;3575901;40;20060;-62
2021/12/10 05:09:59;;;;;;;6.43;2.15;;;;;;;4.59;70.99;98939.16;3581185;40;20052;-63
2021/12/10 05:12:25;;;;;;;9.23;2.60;;;;;;;4.39;70.80;98912.09;3580839;40;20114;-62
2021/12/10 05:14:57;;;;;;;6.03;2.22;;;;;;;4.52;70.61;98943.19;3576221;40;20072;-62
2021/12/10 05:17:26;;;;;;;5.80;2.75;;;;;;;4.51;71.06;98925.53;3577007;40;20052;-63
2021/12/10 05:19:52;;;;;;;8.82;2.65;;;;;;;4.54;70.99;98935.97;3574992;40;20049;-63
2021/12/10 05:22:17;;;;;;;10.05;3.00;;;;;;;4.54;71.16;98930.66;3577893;40;20090;-63
2021/12/10 05:24:43;;;;;;;7.13;2.50;;;;;;;4.54;71.15;98920.00;3579546;40;20098;-62
2021/12/10 05:27:10;;;;;;;7.65;3.05;;;;;;;4.53;70.99;98924.44;3579923;40;20160;-63
2021/12/10 05:29:36;;;;;;;7.18;3.28;;;;;;;4.57;70.44;98919.81;3576223;40;20047;-63
2021/12/10 05:32:05;;;;;;;13.02;3.63;;;;;;;4.57;70.78;98919.81;3579398;40;20082;-63
2021/12/10 05:34:31;;;;;;;4.38;2.90;;;;;;;4.62;70.69;98920.31;3579908;40;20055;-63
2021/12/10 05:36:57;;;;;;;11.05;3.47;;;;;;;4.62;70.10;98917.66;3566530;40;20057;-63
2021/12/10 05:39:25;;;;;;;8.25;3.10;;;;;;;4.48;70.55;98884.03;3581708;40;20117;-62
2021/12/10 05:41:53;;;;;;;7.53;3.33;;;;;;;4.65;70.00;98912.97;3580094;40;20047;-63
2021/12/10 05:44:19;;;;;;;13.02;3.90;;;;;;;4.64;70.58;98905.13;3580639;40;20155;-63
2021/12/10 05:46:45;;;;;;;9.63;3.35;;;;;;;4.68;70.39;98905.75;3576208;40;20057;-63
2021/12/10 05:49:11;;;;;;;8.45;3.33;;;;;;;4.71;70.02;98901.06;3580265;40;20056;-63
2021/12/10 05:51:37;;;;;;;6.55;3.30;;;;;;;4.73;70.24;98895.66;3578630;40;20302;-63
2021/12/10 05:54:04;;;;;;;7.78;3.50;;;;;;;3.63;70.09;98725.84;3577301;40;20056;-63
2021/12/10 05:56:31;;;;;;;7.97;3.25;;;;;;;4.72;70.16;98907.25;3579126;40;20044;-62
2021/12/10 05:58:58;;;;;;;6.57;3.10;;;;;;;4.74;70.23;98884.88;3579166;40;20049;-63
2021/12/10 06:01:24;;;;;;;11.75;3.50;;;;;;;4.76;69.53;98914.06;3579683;40;20062;-63
2021/12/10 06:03:52;;;;;;;9.32;2.85;;;;;;;4.75;69.78;98901.69;3578293;40;20060;-63
2021/12/10 06:06:27;;;;;;;11.32;3.03;;;;;;;4.77;69.89;98891.81;3582334;40;20060;-64
2021/12/10 06:08:55;;;;;;;8.80;3.20;;;;;;;4.78;70.16;98902.34;3578729;40;20047;-63
2021/12/10 06:11:23;;;;;;;7.57;2.80;;;;;;;4.77;69.86;98895.31;3582171;40;20055;-63
2021/12/10 06:13:50;;;;;;;8.43;2.95;;;;;;;4.78;70.16;98894.34;3578564;40;20272;-63
2021/12/10 06:16:16;;;;;;;6.95;2.90;;;;;;;4.64;69.66;98862.53;3581347;40;20052;-63
2021/12/10 06:18:43;;;;;;;7.80;2.78;;;;;;;4.78;70.00;98896.16;3580604;40;20075;-63
2021/12/10 06:21:09;;;;;;;9.68;3.40;;;;;;;4.65;69.35;98858.91;3578008;40;20294;-63
2021/12/10 06:23:35;;;;;;;7.93;2.90;;;;;;;4.81;69.87;98890.63;3580171;40;20052;-63
2021/12/10 06:26:04;;;;;;;7.55;3.25;;;;;;;4.81;69.61;98874.66;3582969;40;20074;-63
2021/12/10 06:28:31;;;;;;;6.72;3.00;;;;;;;4.83;69.52;98878.09;3577504;40;20053;-62
2021/12/10 06:30:58;;;;;;;8.07;2.83;;;;;;;4.82;69.46;98881.69;3574961;40;20057;-63
2021/12/10 06:33:27;;;;;;;8.52;3.08;;;;;;;4.82;69.76;98879.91;3577251;40;20404;-63
2021/12/10 06:36:00;;;;;;;8.40;3.25;;;;;;;4.82;69.39;98879.03;3583385;40;20320;-63
2021/12/10 06:38:27;;;;;;;7.80;3.05;;;;;;;4.85;69.18;98878.81;3573687;40;20048;-63
2021/12/10 06:40:54;;;;;;;8.27;2.72;;;;;;;4.87;69.63;98874.25;3580903;40;20048;-63
2021/12/10 06:43:21;;;;;;;10.15;3.30;;;;;;;4.87;69.38;98869.75;3577172;40;20508;-63
2021/12/10 06:45:51;;;;;;;8.43;3.42;;;;;;;4.89;69.16;98870.53;3579370;40;20818;-63
2021/12/10 06:48:20;;;;;;;9.50;3.38;;;;;;;4.96;69.33;98875.41;3579721;40;20052;-63
2021/12/10 06:50:52;;;;;;;8.02;2.80;;;;;;;4.94;69.21;98878.16;3578989;40;20064;-63
2021/12/10 06:53:21;;;;;;;8.40;2.80;;;;;;;4.94;69.13;98875.50;3579426;40;20322;-63
2021/12/10 06:55:48;;;;;;;9.52;3.35;;;;;;;4.97;69.18;98887.75;3576061;40;20956;-63
2021/12/10 06:58:17;;;;;;;11.10;3.38;;;;;;;4.96;69.11;98886.06;3577643;40;20123;-63
2021/12/10 07:00:57;;;;;;;6.57;3.17;;;;;;;4.97;69.25;98882.44;3576862;40;21281;-63
2021/12/10 07:03:28;;;;;;;8.60;3.42;;;;;;;4.99;69.51;98888.50;3581025;40;20080;-63
2021/12/10 07:05:59;;;;;;;10.80;3.60;;;;;;;4.98;69.35;98892.13;3581104;40;20054;-63
2021/12/10 07:08:30;;;;;;;9.40;3.58;;;;;;;5.00;69.93;98892.88;3566051;40;20088;-63
2021/12/10 07:10:57;;;;;;;8.50;3.28;;;;;;;4.98;69.23;98887.66;3577434;40;20059;-63
2021/12/10 07:13:24;;;;;;;8.23;3.35;;;;;;;4.98;69.61;98884.13;3576437;40;20064;-62
2021/12/10 07:15:52;;;;;;;16.30;5.00;;;;;;;4.81;69.70;98854.22;3575246;40;20408;-64
2021/12/10 07:18:19;;;;;;;12.68;4.25;;;;;;;4.92;69.86;98885.44;3578595;40;20060;-64
2021/12/10 07:20:47;;;;;;;10.80;4.00;;;;;;;4.97;69.33;98890.41;3566742;40;20057;-64
2021/12/10 07:23:14;;;;;;;9.25;3.35;;;;;;;4.96;69.36;98888.72;3579368;40;20127;-64
2021/12/10 07:25:40;;;;;;;8.38;3.67;;;;;;;4.94;69.26;98885.31;3577728;40;20064;-63
2021/12/10 07:28:06;;;;;;;12.45;3.65;;;;;;;4.94;70.21;98883.50;3576674;40;20412;-64
2021/12/10 07:30:34;;;;;;;13.38;3.95;;;;;;;4.86;69.98;98873.41;3577382;40;20063;-63
2021/12/10 07:32:59;;;;;;;10.32;4.20;;;;;;;4.94;69.77;98879.97;3575705;40;20056;-64
2021/12/10 07:35:25;;;;;;;11.32;3.85;;;;;;;4.93;69.84;98878.28;3577536;40;20064;-63
2021/12/10 07:37:52;;;;;;;13.32;3.63;;;;;;;4.88;70.26;98882.13;3577875;40;20071;-64
2021/12/10 07:40:25;;;;;;;10.73;3.33;;;;;;;4.94;70.28;98879.97;3579429;40;20116;-64
2021/12/10 07:42:50;;;;;;;9.80;3.30;;;;;;;4.94;70.95;98874.66;3578595;40;20049;-64
2021/12/10 07:45:18;;;;;;;9.93;2.80;;;;;;;4.88;70.36;98870.59;3581247;40;20324;-64
2021/12/10 07:47:49;;;;;;;10.25;3.28;;;;;;;4.94;70.79;98872.84;3576581;40;20065;-64
2021/12/10 07:50:23;;;;;;;10.70;3.35;;;;;;;4.95;70.89;98884.34;3577834;40;20542;-64
2021/12/10 07:52:54;;;;;;;;;;;;;;;4.73;70.91;98848.59;3575972;40;20055;-64
2021/12/10 07:55:26;;;;;;;5.28;2.33;;;;;;;4.88;71.04;98882.13;3577168;40;20288;-64
2021/12/10 07:57:52;;;;;;;12.68;3.47;;;;;;;4.89;71.33;98870.53;3576329;40;20380;-64
2021/12/10 08:00:23;;;;;;;7.13;2.55;;;;;;;4.91;70.95;98882.84;3579557;40;20103;-64
2021/12/10 08:02:48;;;;;;;9.27;2.63;;;;;;;4.88;71.15;98882.13;3576437;40;20059;-65
2021/12/10 08:05:17;;;;;;;8.85;2.72;;;;;;;4.92;70.02;98887.25;3578433;40;20048;-65
2021/12/10 08:07:44;;;;;;;12.05;3.03;;;;;;;4.91;71.12;98897.03;3577575;40;20123;-66
2021/12/10 08:10:13;;;;;;;11.90;3.00;;;;;;;4.94;71.06;98887.97;3578412;40;20068;-65
2021/12/10 08:12:39;;;;;;;10.32;2.72;;;;;;;4.91;71.36;98886.38;3575839;40;20052;-66
2021/12/10 08:15:06;;;;;;;8.20;2.80;;;;;;;4.93;71.28;98889.78;3577599;40;20048;-66
2021/12/10 08:17:33;;;;;;;8.95;2.50;;;;;;;4.92;71.54;98887.25;3569137;40;20145;-65
2021/12/10 08:19:59;;;;;;;8.50;2.40;;;;;;;4.89;70.94;98878.50;3573734;40;20064;-66
2021/12/10 08:22:24;;;;;;;10.10;2.65;;;;;;;4.78;70.33;98853.59;3573068;40;20120;-65
2021/12/10 08:24:50;;;;;;;14.13;2.85;;;;;;;4.98;71.33;98894.78;3577758;40;20067;-65
2021/12/10 08:27:16;;;;;;;8.20;2.90;;;;;;;4.97;70.24;98890.41;3577659;40;20110;-65
2021/12/10 08:29:44;;;;;;;9.10;2.83;;;;;;;4.78;69.90;98854.44;3565604;40;20068;-65
2021/12/10 08:32:15;;;;;;;11.85;2.75;;;;;;;5.02;70.25;98885.63;3567431;40;20049;-65
2021/12/10 08:34:42;;;;;;;9.35;2.83;;;;;;;5.04;70.33;98881.91;3571115;40;20052;-65
2021/12/10 08:37:08;;;;;;;11.27;2.67;;;;;;;5.06;69.56;98882.63;3566236;40;20052;-65
2021/12/10 08:39:34;;;;;;;11.68;2.45;;;;;;;5.08;69.91;98890.53;3563996;40;20107;-66
2021/12/10 08:42:00;;;;;;;8.90;2.38;;;;;;;5.08;70.24;98893.19;3564001;40;20091;-65
2021/12/10 08:44:27;;;;;;;8.52;2.30;;;;;;;5.10;69.95;98892.09;3564798;40;20107;-65
2021/12/10 08:46:53;;;;;;;10.98;2.90;;;;;;;5.10;69.72;98896.59;3564481;40;20090;-64
2021/12/10 08:49:19;;;;;;;7.78;2.58;;;;;;;4.99;69.84;98878.72;3565527;40;20453;-65
2021/12/10 08:51:53;;;;;;;7.10;2.38;;;;;;;5.11;69.68;98896.50;3567405;40;20308;-65
2021/12/10 08:54:26;;;;;;;7.30;2.38;;;;;;;5.13;69.07;98885.72;3568576;40;20061;-65
2021/12/10 08:56:52;;;;;;;7.03;2.70;;;;;;;5.11;69.62;98892.97;3572750;40;20048;-65
2021/12/10 08:59:22;;;;;;;6.53;2.60;;;;;;;5.15;69.25;98889.13;3569681;40;20055;-65
2021/12/10 09:01:52;;;;;;;6.07;2.50;;;;;;;5.18;68.72;98891.59;3565103;40;20123;-65
2021/12/10 09:04:18;;;;;;;8.80;2.92;;;;;;;5.17;68.82;98876.56;3585459;39;20264;-65
2021/12/10 09:06:52;;;;;;;10.07;2.67;;;;;;;5.23;69.40;98892.13;3573255;40;20102;-65
2021/12/10 09:09:19;;;;;;;;;;;;;;;4.87;68.94;98837.81;3574404;40;20060;-65
2021/12/10 09:11:58;;;;;;;10.15;3.22;;;;;;;4.97;68.72;98854.00;3573412;40;19937;-65
2021/12/10 09:14:34;;;;;;;9.57;2.92;;;;;;;5.24;67.99;98899.13;3570414;40;20061;-66
2021/12/10 09:17:02;;;;;;;7.90;2.80;;;;;;;5.25;68.58;98895.50;3567475;40;20053;-65
2021/12/10 09:19:29;;;;;;;7.25;2.58;;;;;;;5.28;68.00;98905.94;3610475;22;20060;-67
2021/12/10 09:21:56;;;;;;;13.52;2.80;;;;;;;5.19;68.21;98890.63;3584417;40;20056;-66
2021/12/10 09:24:24;;;;;;;14.52;3.08;;;;;;;5.34;68.43;98908.19;3584156;40;20302;-67
2021/12/10 09:26:57;;;;;;;11.55;3.15;;;;;;;5.33;68.14;98908.28;3583696;40;20375;-68
2021/12/10 09:29:28;;;;;;;6.45;3.20;;;;;;;5.39;68.54;98901.66;3584212;40;20286;-67
2021/12/10 09:31:54;;;;;;;12.48;3.28;;;;;;;4.35;67.52;98740.38;3581585;40;20086;-66
2021/12/10 09:34:21;;;;;;;10.30;2.92;;;;;;;5.42;67.97;98896.97;3581369;40;20055;-67
2021/12/10 09:36:50;;;;;;;6.78;2.80;;;;;;;5.39;67.86;98891.84;3580010;40;20052;-67
2021/12/10 09:39:21;;;;;;;10.18;3.30;;;;;;;5.47;68.05;98904.63;3579998;40;20064;-67
2021/12/10 09:41:48;;;;;;;11.00;3.35;;;;;;;5.47;68.12;98909.97;3579169;40;20123;-67
2021/12/10 09:44:16;;;;;;;9.30;3.30;;;;;;;5.47;67.88;98910.81;3578137;40;20084;-67
2021/12/10 09:46:43;;;;;;;7.13;3.38;;;;;;;5.50;67.48;98915.06;3580821;40;20053;-67
2021/12/10 09:49:11;;;;;;;10.20;3.42;;;;;;;5.46;67.32;98894.94;3579962;40;20052;-67
2021/12/10 09:51:47;;;;;;;10.98;3.40;;;;;;;5.54;67.28;98905.88;3579247;40;20370;-66
2021/12/10 09:54:19;;;;;;;11.02;3.70;;;;;;;5.47;67.51;98900.16;3578907;40;20126;-68
2021/12/10 09:57:04;;;;;;;7.50;3.25;;;;;;;5.49;67.52;98905.38;3576571;40;20048;-67
2021/12/10 09:59:33;;;;;;;8.93;3.45;;;;;;;5.54;67.88;98903.22;3576919;40;20056;-66
2021/12/10 10:02:00;;;;;;;9.45;3.30;;;;;;;5.58;67.84;98908.25;3579551;40;20410;-66
2021/12/10 10:04:31;;;;;;;6.13;3.60;;;;;;;5.63;68.32;98907.91;3579841;40;20096;-67
2021/12/10 10:07:07;;;;;;;11.23;3.30;;;;;;;5.65;67.49;98908.66;3580484;40;20190;-67
2021/12/10 10:09:33;;;;;;;8.88;3.20;;;;;;;5.67;67.23;98917.38;3583032;40;20055;-67
2021/12/10 10:12:10;;;;;;;11.82;3.10;;;;;;;5.67;67.27;98917.38;3578361;40;20068;-67
2021/12/10 10:14:39;;;;;;;9.60;3.22;;;;;;;5.70;66.62;98922.47;3583769;40;20063;-67
2021/12/10 10:17:10;;;;;;;7.47;3.47;;;;;;;5.71;66.24;98918.88;3581091;40;20056;-66
2021/12/10 10:19:37;;;;;;;7.28;3.05;;;;;;;5.76;66.87;98916.69;3582917;40;20060;-68
2021/12/10 10:22:10;;;;;;;6.07;3.15;;;;;;;5.70;66.89;98906.47;3582971;40;20060;-66
2021/12/10 10:24:36;;;;;;;;;;;;;;;5.63;66.20;98894.56;3581110;40;20043;-66
2021/12/10 10:27:24;;;;;;;8.40;2.80;;;;;;;5.75;66.02;98912.34;3579126;40;19940;-67
2021/12/10 10:30:15;;;;;;;9.18;3.00;;;;;;;5.79;66.40;98916.47;3578880;40;20298;-67
2021/12/10 10:32:46;;;;;;;8.45;3.05;;;;;;;5.87;65.97;98917.72;3581797;40;20088;-67
2021/12/10 10:35:36;;;;;;;6.25;3.05;;;;;;;5.92;66.36;98926.25;3578952;40;20142;-67
2021/12/10 10:38:05;;;;;;;6.38;2.72;;;;;;;5.91;65.40;98930.75;3580290;40;20048;-67
2021/12/10 10:40:36;;;;;;;6.28;2.65;;;;;;;5.38;65.57;98836.88;3580531;40;20095;-67
2021/12/10 10:43:03;;;;;;;9.80;2.88;;;;;;;5.92;65.49;98920.91;3579409;40;20061;-68
2021/12/10 10:45:34;;;;;;;10.43;2.90;;;;;;;5.91;65.32;98925.41;3580881;40;20093;-67
2021/12/10 10:48:00;;;;;;;7.53;2.78;;;;;;;5.94;65.60;98927.03;3577746;40;20186;-67
2021/12/10 10:50:39;;;;;;;11.68;5.00;;;;;;;5.96;65.71;98922.41;3581150;40;20100;-67
2021/12/10 10:53:14;;;;;;;8.70;3.03;;;;;;;5.95;65.39;98918.06;3577630;40;20381;-67
2021/12/10 10:55:56;;;;;;;9.75;3.35;;;;;;;5.99;65.83;98922.19;3577788;40;20103;-68
2021/12/10 10:58:30;;;;;;;6.68;2.92;;;;;;;6.01;66.26;98930.94;3576665;40;20068;-67
2021/12/10 11:01:14;;;;;;;;;;;;;;;6.00;65.41;98927.44;3581915;40;20173;-66
2021/12/10 11:03:51;;;;;;;4.57;2.28;;;;;;;6.01;65.47;98930.94;3578582;40;19940;-67
2021/12/10 11:06:30;;;;;;;8.02;2.65;;;;;;;5.95;65.97;98926.06;3581954;40;20075;-67
2021/12/10 11:09:24;;;;;;;9.35;2.75;;;;;;;6.01;66.17;98933.63;3579028;40;20349;-67
2021/12/10 11:11:59;;;;;;;6.97;2.58;;;;;;;6.00;66.11;98934.59;3578183;40;20069;-67
2021/12/10 11:14:43;;;;;;;5.63;2.58;;;;;;;5.97;65.82;98925.00;3580009;40;20080;-67
2021/12/10 11:17:25;;;;;;;;;;;;;;;5.97;66.62;98933.00;3576689;40;20060;-67
2021/12/10 11:20:03;;;;;;;9.90;3.58;;;;;;;5.95;66.34;98931.41;3578200;40;20297;-66
2021/12/10 11:22:31;;;;;;;6.75;3.03;;;;;;;6.01;66.84;98941.63;3574670;40;20053;-67
2021/12/10 11:25:05;;;;;;;8.50;2.90;;;;;;;6.07;66.87;98943.00;3579954;40;20145;-66
2021/12/10 11:27:42;;;;;;;4.97;2.83;;;;;;;6.09;66.89;98944.59;3579620;40;20060;-66
2021/12/10 11:30:20;;;;;;;10.75;3.20;;;;;;;6.04;66.51;98942.25;3578643;40;20060;-67
2021/12/10 11:33:06;;;;;;;12.13;3.42;;;;;;;6.08;67.11;98947.34;3579604;40;20048;-67
2021/12/10 11:35:38;;;;;;;8.45;2.70;;;;;;;6.00;65.93;98929.25;3576922;40;20437;-66
2021/12/10 11:38:10;;;;;;;7.63;2.60;;;;;;;6.09;66.98;98947.25;3578285;40;20056;-67
2021/12/10 11:40:48;;;;;;;10.35;2.90;;;;;;;6.06;66.31;98944.81;3580648;40;20056;-67
2021/12/10 11:48:41;;;;;;;7.75;2.80;;;;;;;5.92;67.68;98958.25;3578223;40;20412;-67
2021/12/10 11:51:13;;;;;;;11.10;3.13;;;;;;;5.88;67.51;98951.44;3579314;40;20052;-66
2021/12/10 11:54:01;;;;;;;6.65;2.65;;;;;;;5.84;68.19;98952.63;3577918;40;20060;-67
2021/12/10 11:56:34;;;;;;;6.03;2.83;;;;;;;5.77;68.13;98953.09;3580633;40;20507;-67
2021/12/10 11:59:28;;;;;;;6.40;2.90;;;;;;;5.75;68.33;98952.34;3576896;40;20276;-67
2021/12/10 12:02:14;;;;;;;10.05;2.83;;;;;;;5.73;68.76;98956.91;3583046;40;20064;-67
2021/12/10 12:05:01;;;;;;;10.57;2.75;;;;;;;5.71;69.40;98972.19;3579524;40;20052;-68
2021/12/10 12:07:46;;;;;;;8.30;2.85;;;;;;;5.66;69.91;98950.31;3578274;40;20126;-67
2021/12/10 12:10:22;;;;;;;9.77;3.15;;;;;;;5.74;70.37;98977.31;3576173;40;20088;-68
2021/12/10 12:13:02;;;;;;;8.10;2.92;;;;;;;5.70;69.51;98970.47;3577324;40;20104;-67